Time;durP1;ratioP1;P1;durP2;ratioP2;P2;SDS_P1;SDS_P2;PMS_P1;PMS_P2;Temp;Humidity;BMP_temperature;BMP_pressure;BME280_temperature;BME280_humidity;BME280_pressure;Samples;Min_cycle;Max_cycle;Signal;HPM_P1;HPM_P2
2021/03/14 00:01:51;;;;;;;;;;;5.20;99.90;;;;;;5010302;28;19917;-64
2021/03/14 00:04:16;;;;;;;;;;;5.10;99.90;;;;;;5015326;28;19948;-63
2021/03/14 00:06:42;;;;;;;;;;;5.00;99.90;;;;;;5019274;28;19913;-62
2021/03/14 00:09:07;;;;;;;;;;;5.00;99.90;;;;;;5008903;28;20043;-65
2021/03/14 00:11:32;;;;;;;;;;;4.90;99.90;;;;;;5009800;28;20460;-66
2021/03/14 00:13:58;;;;;;;;;;;4.90;99.90;;;;;;5015462;28;19913;-65
2021/03/14 00:16:23;;;;;;;;;;;4.80;99.90;;;;;;5012930;28;20059;-65
2021/03/14 00:18:52;;;;;;;;;;;4.80;99.90;;;;;;5018679;28;19919;-63
2021/03/14 00:21:19;;;;;;;;;;;4.70;99.90;;;;;;5018171;28;19920;-63
2021/03/14 00:23:45;;;;;;;;;;;4.70;99.90;;;;;;5018553;28;19917;-65
2021/03/14 00:26:10;;;;;;;;;;;4.70;99.90;;;;;;5023179;28;20243;-65
2021/03/14 00:28:36;;;;;;;;;;;4.70;99.90;;;;;;5004333;28;19913;-67
2021/03/14 00:31:01;;;;;;;;;;;4.70;99.90;;;;;;5020706;28;19917;-65
2021/03/14 00:33:27;;;;;;;;;;;4.70;99.90;;;;;;5020194;28;19992;-65
2021/03/14 00:35:52;;;;;;;;;;;4.70;99.90;;;;;;5009419;28;19917;-64
2021/03/14 00:38:18;;;;;;;;;;;4.70;99.90;;;;;;5020508;28;19924;-63
2021/03/14 00:40:43;;;;;;;;;;;4.70;99.90;;;;;;5010033;28;20381;-63
2021/03/14 00:43:09;;;;;;;;;;;4.70;99.90;;;;;;5015656;28;19924;-63
2021/03/14 00:45:36;;;;;;;;;;;4.70;99.90;;;;;;5017110;28;20293;-64
2021/03/14 00:48:02;;;;;;;;;;;4.70;99.90;;;;;;5018318;28;19913;-63
2021/03/14 00:50:28;;;;;;;;;;;4.70;99.90;;;;;;5008856;28;20255;-64
2021/03/14 00:52:54;;;;;;;;;;;4.70;99.90;;;;;;5010003;28;19921;-63
2021/03/14 00:55:19;;;;;;;;;;;4.70;99.90;;;;;;5011523;28;19917;-65
2021/03/14 00:57:45;;;;;;;;;;;4.70;99.90;;;;;;5016807;28;20616;-64
2021/03/14 01:00:10;;;;;;;;;;;4.70;99.90;;;;;;5010821;28;19925;-66
2021/03/14 01:02:36;;;;;;;;;;;4.70;99.90;;;;;;5024517;28;19913;-63
2021/03/14 01:05:02;;;;;;;;;;;4.70;99.90;;;;;;5015904;28;19913;-65
2021/03/14 01:07:27;;;;;;;;;;;4.70;99.90;;;;;;5012224;28;19918;-65
2021/03/14 01:09:53;;;;;;;;;;;4.60;99.90;;;;;;5016056;28;19997;-63
2021/03/14 01:12:18;;;;;;;;;;;4.60;99.90;;;;;;5022503;28;20394;-64
2021/03/14 01:14:44;;;;;;;;;;;4.60;99.90;;;;;;5012228;28;20375;-65
2021/03/14 01:17:09;;;;;;;;;;;4.60;99.90;;;;;;5028988;28;19917;-64
2021/03/14 01:19:35;;;;;;;;;;;4.70;99.90;;;;;;5011280;28;19918;-63
2021/03/14 01:22:01;;;;;;;;;;;4.70;99.90;;;;;;5021142;28;19924;-65
2021/03/14 01:24:27;;;;;;;;;;;4.70;99.90;;;;;;5017291;28;19964;-64
2021/03/14 01:26:52;;;;;;;;;;;4.80;99.90;;;;;;5014086;28;20419;-65
2021/03/14 01:29:18;;;;;;;;;;;4.80;99.90;;;;;;5018596;28;19921;-62
2021/03/14 01:31:43;;;;;;;;;;;4.80;99.90;;;;;;5021745;28;20389;-61
2021/03/14 01:34:09;;;;;;;;;;;4.90;99.90;;;;;;5014740;28;19925;-63
2021/03/14 01:36:34;;;;;;;;;;;4.90;99.90;;;;;;5019880;28;19920;-64
2021/03/14 01:39:00;;;;;;;;;;;4.90;99.90;;;;;;5026973;28;19920;-64
2021/03/14 01:41:28;;;;;;;;;;;4.90;99.90;;;;;;5019093;28;19913;-64
2021/03/14 01:43:54;;;;;;;;;;;4.90;99.90;;;;;;5019343;28;19913;-64
2021/03/14 01:46:22;;;;;;;;;;;4.90;99.90;;;;;;5020464;28;19924;-64
2021/03/14 01:48:48;;;;;;;;;;;4.90;99.90;;;;;;5024126;28;19921;-65
2021/03/14 01:51:14;;;;;;;;;;;4.80;99.90;;;;;;5013621;28;20309;-63
2021/03/14 01:53:39;;;;;;;;;;;4.80;99.90;;;;;;5021409;28;19985;-64
2021/03/14 01:56:05;;;;;;;;;;;4.80;99.90;;;;;;5025834;28;19932;-63
2021/03/14 01:58:33;;;;;;;;;;;4.70;99.90;;;;;;5020448;28;19913;-64
2021/03/14 02:00:58;;;;;;;;;;;4.70;99.90;;;;;;5020416;28;19918;-64
2021/03/14 02:03:24;;;;;;;;;;;4.70;99.90;;;;;;5019226;28;19924;-64
2021/03/14 02:05:50;;;;;;;;;;;4.70;99.90;;;;;;5021603;28;19917;-66
2021/03/14 02:08:17;;;;;;;;;;;4.70;99.90;;;;;;5016860;28;20342;-65
2021/03/14 02:10:42;;;;;;;;;;;4.70;99.90;;;;;;5019999;28;20341;-66
2021/03/14 02:13:08;;;;;;;;;;;4.60;99.90;;;;;;5018022;28;19967;-65
2021/03/14 02:15:39;;;;;;;;;;;4.60;99.90;;;;;;5015531;28;19917;-65
2021/03/14 02:18:05;;;;;;;;;;;4.70;99.90;;;;;;5019246;28;19913;-64
2021/03/14 02:20:31;;;;;;;;;;;4.70;99.90;;;;;;5021648;28;20071;-65
2021/03/14 02:23:06;;;;;;;;;;;4.70;99.90;;;;;;5019132;28;19914;-66
2021/03/14 02:25:35;;;;;;;;;;;4.80;99.90;;;;;;5014359;28;19949;-64
2021/03/14 02:28:01;;;;;;;;;;;4.90;99.90;;;;;;5011359;28;20324;-64
2021/03/14 02:30:26;;;;;;;;;;;4.90;99.90;;;;;;5011088;28;20031;-65
2021/03/14 02:32:52;;;;;;;;;;;4.90;99.90;;;;;;5014421;28;20388;-66
2021/03/14 02:35:18;;;;;;;;;;;4.80;99.90;;;;;;5020921;28;20560;-65
2021/03/14 02:37:44;;;;;;;;;;;4.80;99.90;;;;;;5021915;28;19962;-64
2021/03/14 02:40:11;;;;;;;;;;;4.70;99.90;;;;;;5017763;28;19967;-64
2021/03/14 02:42:38;;;;;;;;;;;4.70;99.90;;;;;;5021089;28;19943;-64
2021/03/14 02:45:04;;;;;;;;;;;4.70;99.90;;;;;;5030071;28;19914;-65
2021/03/14 02:47:30;;;;;;;;;;;4.70;99.90;;;;;;5017453;28;19917;-65
2021/03/14 02:49:55;;;;;;;;;;;4.70;99.90;;;;;;5011462;28;20388;-66
2021/03/14 02:52:21;;;;;;;;;;;4.60;99.90;;;;;;5017830;28;19924;-65
2021/03/14 02:54:48;;;;;;;;;;;4.70;99.90;;;;;;5015708;28;19914;-65
2021/03/14 02:57:14;;;;;;;;;;;4.60;99.90;;;;;;5021453;28;20008;-66
2021/03/14 02:59:40;;;;;;;;;;;4.60;99.90;;;;;;5027031;28;20008;-66
2021/03/14 03:02:07;;;;;;;;;;;4.60;99.90;;;;;;5025834;28;19928;-66
2021/03/14 03:04:33;;;;;;;;;;;4.50;99.90;;;;;;5020545;28;20021;-65
2021/03/14 03:06:58;;;;;;;;;;;4.50;99.90;;;;;;5013124;28;20626;-65
2021/03/14 03:09:25;;;;;;;;;;;4.60;99.90;;;;;;5024393;28;20398;-66
2021/03/14 03:11:52;;;;;;;;;;;4.60;99.90;;;;;;5019828;28;19995;-65
2021/03/14 03:14:18;;;;;;;;;;;4.50;99.90;;;;;;5015241;28;19920;-64
2021/03/14 03:16:46;;;;;;;;;;;4.50;99.90;;;;;;5019324;28;19921;-65
2021/03/14 03:19:12;;;;;;;;;;;4.60;99.90;;;;;;5016212;28;19913;-65
2021/03/14 03:21:38;;;;;;;;;;;4.60;99.90;;;;;;5027770;28;20552;-64
2021/03/14 03:24:04;;;;;;;;;;;4.60;99.90;;;;;;5023343;28;19913;-66
2021/03/14 03:26:30;;;;;;;;;;;4.60;99.90;;;;;;5014269;28;19921;-65
2021/03/14 03:28:55;;;;;;;;;;;4.60;99.90;;;;;;5028254;28;19913;-65
2021/03/14 03:31:21;;;;;;;;;;;4.60;99.90;;;;;;5015238;28;19991;-65
2021/03/14 03:33:46;;;;;;;;;;;4.50;99.90;;;;;;5028669;28;20013;-66
2021/03/14 03:36:12;;;;;;;;;;;4.50;99.90;;;;;;5011090;28;20065;-65
2021/03/14 03:38:38;;;;;;;;;;;4.50;99.90;;;;;;5024805;28;19920;-67
2021/03/14 03:41:04;;;;;;;;;;;4.50;99.90;;;;;;5020995;28;19913;-66
2021/03/14 03:43:33;;;;;;;;;;;4.50;99.90;;;;;;5017927;28;20247;-65
2021/03/14 03:46:00;;;;;;;;;;;4.50;99.90;;;;;;5018762;28;20032;-65
2021/03/14 03:48:29;;;;;;;;;;;4.50;99.90;;;;;;5018605;28;20471;-66
2021/03/14 03:50:57;;;;;;;;;;;4.50;99.90;;;;;;5023005;28;20000;-66
2021/03/14 03:53:23;;;;;;;;;;;4.50;99.90;;;;;;5017483;28;20297;-65
2021/03/14 03:55:49;;;;;;;;;;;4.40;99.90;;;;;;5018791;28;19917;-65
2021/03/14 03:58:16;;;;;;;;;;;4.40;99.90;;;;;;5017669;28;20369;-65
2021/03/14 04:00:41;;;;;;;;;;;4.30;99.90;;;;;;5017040;28;20297;-65
2021/03/14 04:03:07;;;;;;;;;;;4.30;99.90;;;;;;5000048;28;19919;-65
2021/03/14 04:05:33;;;;;;;;;;;4.20;99.90;;;;;;5023560;28;19960;-66
2021/03/14 04:07:59;;;;;;;;;;;4.10;99.90;;;;;;5011667;28;20015;-63
2021/03/14 04:10:26;;;;;;;;;;;4.00;99.90;;;;;;5018442;28;19929;-65
2021/03/14 04:12:52;;;;;;;;;;;4.00;99.90;;;;;;5023588;28;19917;-66
2021/03/14 04:15:19;;;;;;;;;;;3.90;99.90;;;;;;5018452;28;19924;-65
2021/03/14 04:17:45;;;;;;;;;;;3.90;99.90;;;;;;5021091;28;19968;-66
2021/03/14 04:20:15;;;;;;;;;;;3.90;99.90;;;;;;5021200;28;19913;-65
2021/03/14 04:22:42;;;;;;;;;;;3.80;99.90;;;;;;5021338;28;20342;-65
2021/03/14 04:25:08;;;;;;;;;;;3.80;99.90;;;;;;5020767;28;19931;-67
2021/03/14 04:27:35;;;;;;;;;;;3.70;99.90;;;;;;5022170;28;19913;-65
2021/03/14 04:30:01;;;;;;;;;;;3.80;99.90;;;;;;5025447;28;19921;-63
2021/03/14 04:32:27;;;;;;;;;;;3.80;99.90;;;;;;5017931;28;19921;-66
2021/03/14 04:34:52;;;;;;;;;;;3.80;99.90;;;;;;5021834;28;20277;-65
2021/03/14 04:37:19;;;;;;;;;;;3.80;99.90;;;;;;5021016;28;20413;-64
2021/03/14 04:39:45;;;;;;;;;;;3.80;99.90;;;;;;5029466;28;19961;-65
2021/03/14 04:42:11;;;;;;;;;;;3.80;99.90;;;;;;5011406;28;19918;-65
2021/03/14 04:44:37;;;;;;;;;;;3.70;99.90;;;;;;5013962;28;19913;-64
2021/03/14 04:47:03;;;;;;;;;;;3.70;99.90;;;;;;5014668;28;20347;-65
2021/03/14 04:49:28;;;;;;;;;;;3.70;99.90;;;;;;5025912;28;19983;-65
2021/03/14 04:51:54;;;;;;;;;;;3.70;99.90;;;;;;5013160;28;20200;-65
2021/03/14 04:54:20;;;;;;;;;;;3.60;99.90;;;;;;5017081;28;20240;-64
2021/03/14 04:56:46;;;;;;;;;;;3.60;99.90;;;;;;5079729;22;19935;-69
2021/03/14 04:59:13;;;;;;;;;;;3.60;99.90;;;;;;5083888;28;20449;-70
2021/03/14 05:01:39;;;;;;;;;;;3.60;99.90;;;;;;5078317;28;19951;-70
2021/03/14 05:04:06;;;;;;;;;;;3.60;99.90;;;;;;5080000;28;20304;-69
2021/03/14 05:06:32;;;;;;;;;;;3.50;99.90;;;;;;5075660;28;19921;-68
2021/03/14 05:08:58;;;;;;;;;;;3.60;99.90;;;;;;5051871;28;19916;-66
2021/03/14 05:11:24;;;;;;;;;;;3.60;99.90;;;;;;5057420;28;20489;-68
2021/03/14 05:13:49;;;;;;;;;;;3.60;99.90;;;;;;5061509;28;19999;-68
2021/03/14 05:16:15;;;;;;;;;;;3.70;99.90;;;;;;5058361;28;19920;-68
2021/03/14 05:18:42;;;;;;;;;;;3.70;99.90;;;;;;5052632;28;19909;-69
2021/03/14 05:21:07;;;;;;;;;;;3.80;99.90;;;;;;5055920;28;20381;-69
2021/03/14 05:23:33;;;;;;;;;;;3.70;99.90;;;;;;5059917;28;19919;-69
2021/03/14 05:25:59;;;;;;;;;;;3.80;99.90;;;;;;5056794;28;19919;-68
2021/03/14 05:28:25;;;;;;;;;;;3.80;99.90;;;;;;5055768;28;20288;-66
2021/03/14 05:30:50;;;;;;;;;;;3.70;99.90;;;;;;5066475;28;19913;-66
2021/03/14 05:33:16;;;;;;;;;;;3.80;99.90;;;;;;5062859;28;19916;-68
2021/03/14 05:35:41;;;;;;;;;;;3.70;99.90;;;;;;5058926;28;19921;-68
2021/03/14 05:38:07;;;;;;;;;;;3.70;99.90;;;;;;5057904;28;20003;-67
2021/03/14 05:40:33;;;;;;;;;;;3.70;99.90;;;;;;5056706;28;20364;-69
2021/03/14 05:42:59;;;;;;;;;;;3.70;99.90;;;;;;5060711;28;20066;-67
2021/03/14 05:45:25;;;;;;;;;;;3.70;99.90;;;;;;5063611;28;19916;-67
2021/03/14 05:47:51;;;;;;;;;;;3.70;99.90;;;;;;5062808;28;19952;-66
2021/03/14 05:50:21;;;;;;;;;;;3.70;99.90;;;;;;5063246;28;20016;-67
2021/03/14 05:52:47;;;;;;;;;;;3.70;99.90;;;;;;5053655;28;20008;-67
2021/03/14 05:55:14;;;;;;;;;;;3.70;99.90;;;;;;5065246;28;19950;-67
2021/03/14 05:57:44;;;;;;;;;;;3.60;99.90;;;;;;5057687;28;20288;-66
2021/03/14 06:00:10;;;;;;;;;;;3.60;99.90;;;;;;5063030;28;19948;-68
2021/03/14 06:02:37;;;;;;;;;;;3.60;99.90;;;;;;5043547;28;20315;-67
2021/03/14 06:05:03;;;;;;;;;;;3.60;99.90;;;;;;5064546;28;19976;-67
2021/03/14 06:07:28;;;;;;;;;;;3.60;99.90;;;;;;5062250;28;20011;-66
2021/03/14 06:09:54;;;;;;;;;;;3.60;99.90;;;;;;5061597;28;19913;-66
2021/03/14 06:12:20;;;;;;;;;;;3.60;99.90;;;;;;5057764;28;20036;-67
2021/03/14 06:14:45;;;;;;;;;;;3.60;99.90;;;;;;5054982;28;20007;-66
2021/03/14 06:17:14;;;;;;;;;;;3.60;99.90;;;;;;5061375;28;19913;-65
2021/03/14 06:19:39;;;;;;;;;;;3.60;99.90;;;;;;5071227;28;20387;-67
2021/03/14 06:22:21;;;;;;;;;;;3.60;99.90;;;;;;5068972;28;19916;-67
2021/03/14 06:24:47;;;;;;;;;;;3.60;99.90;;;;;;5063230;28;19992;-68
2021/03/14 06:27:27;;;;;;;;;;;3.60;99.90;;;;;;5060107;28;19931;-67
2021/03/14 06:29:53;;;;;;;;;;;3.60;99.90;;;;;;5066904;28;19931;-67
2021/03/14 06:32:18;;;;;;;;;;;3.70;99.90;;;;;;5059214;28;19932;-67
2021/03/14 06:34:44;;;;;;;;;;;3.70;99.90;;;;;;5060765;28;19916;-65
2021/03/14 06:37:11;;;;;;;;;;;3.70;99.90;;;;;;5050786;28;19955;-66
2021/03/14 06:39:38;;;;;;;;;;;3.70;99.90;;;;;;5065881;28;19921;-68
2021/03/14 06:42:04;;;;;;;;;;;3.70;99.90;;;;;;5060892;28;19992;-65
2021/03/14 06:44:30;;;;;;;;;;;3.80;99.90;;;;;;5056065;28;20028;-67
2021/03/14 06:46:56;;;;;;;;;;;3.80;99.90;;;;;;5065916;28;19913;-66
2021/03/14 06:49:23;;;;;;;;;;;4.00;99.90;;;;;;5065016;28;20281;-68
2021/03/14 06:51:53;;;;;;;;;;;4.00;99.90;;;;;;5060028;28;20367;-67
2021/03/14 06:54:24;;;;;;;;;;;4.20;99.90;;;;;;5069924;28;19913;-67
2021/03/14 06:57:02;;;;;;;;;;;4.30;99.90;;;;;;5061120;28;20604;-67
2021/03/14 06:59:31;;;;;;;;;;;4.30;99.90;;;;;;5063825;28;20027;-67
2021/03/14 07:01:57;;;;;;;;;;;4.40;99.90;;;;;;5061006;28;19947;-66
2021/03/14 07:04:33;;;;;;;;;;;4.50;99.90;;;;;;5058898;28;20024;-66
2021/03/14 07:06:59;;;;;;;;;;;4.50;99.90;;;;;;5056376;28;19919;-65
2021/03/14 07:09:24;;;;;;;;;;;4.70;99.90;;;;;;5056149;28;19916;-68
2021/03/14 07:11:50;;;;;;;;;;;5.00;99.90;;;;;;5052480;28;19912;-68
2021/03/14 07:14:16;;;;;;;;;;;5.30;99.90;;;;;;5059973;28;19912;-67
2021/03/14 07:16:44;;;;;;;;;;;5.60;99.90;;;;;;5053017;28;19940;-66
2021/03/14 07:19:13;;;;;;;;;;;6.00;99.90;;;;;;5062286;28;19913;-67
2021/03/14 07:21:38;;;;;;;;;;;6.20;99.90;;;;;;5066350;28;19987;-67
2021/03/14 07:24:06;;;;;;;;;;;6.50;99.90;;;;;;5055192;28;20296;-66
2021/03/14 07:26:41;;;;;;;;;;;6.70;99.90;;;;;;5050592;28;19913;-67
2021/03/14 07:29:07;;;;;;;;;;;7.20;99.90;;;;;;5059678;28;19987;-68
2021/03/14 07:31:33;;;;;;;;;;;8.50;99.90;;;;;;5065335;28;20249;-68
2021/03/14 07:34:00;;;;;;;;;;;9.90;99.90;;;;;;5064231;28;19912;-68
2021/03/14 07:36:25;;;;;;;;;;;11.50;99.90;;;;;;5058726;28;19923;-67
2021/03/14 07:38:51;;;;;;;;;;;12.20;99.90;;;;;;5065508;28;20003;-67
2021/03/14 07:41:19;;;;;;;;;;;12.40;99.90;;;;;;5061320;28;19990;-68
2021/03/14 07:43:44;;;;;;;;;;;12.10;99.90;;;;;;5059044;28;19952;-67
2021/03/14 07:46:12;;;;;;;;;;;11.60;99.90;;;;;;5050680;28;19948;-67
2021/03/14 07:48:40;;;;;;;;;;;11.20;99.90;;;;;;5053561;28;19913;-67
2021/03/14 07:51:06;;;;;;;;;;;10.90;99.90;;;;;;5036438;28;19920;-68
2021/03/14 07:53:32;;;;;;;;;;;;;;;;;;5057440;28;19913;-69
2021/03/14 07:55:59;;;;;;;;;;;17.50;95.40;;;;;;5064391;28;19962;-70
2021/03/14 07:58:24;;;;;;;;;;;18.80;89.90;;;;;;5052329;28;19923;-69
2021/03/14 08:00:50;;;;;;;;;;;18.20;77.20;;;;;;5039906;28;19912;-67
2021/03/14 08:03:16;;;;;;;;;;;17.10;77.10;;;;;;5059933;28;19913;-69
2021/03/14 08:05:53;;;;;;;;;;;18.10;71.10;;;;;;5058817;28;19917;-68
2021/03/14 08:08:25;;;;;;;;;;;17.30;70.00;;;;;;5062160;28;19920;-68
2021/03/14 08:10:50;;;;;;;;;;;22.40;65.50;;;;;;5060311;28;20003;-69
2021/03/14 08:13:36;;;;;;;;;;;23.60;49.50;;;;;;5063224;28;19994;-67
2021/03/14 08:16:05;;;;;;;;;;;25.00;46.90;;;;;;5064577;28;19916;-69
2021/03/14 08:18:31;;;;;;;;;;;;;;;;;;5069540;28;19921;-69
2021/03/14 08:20:57;;;;;;;;;;;;;;;;;;5049840;28;19976;-69
2021/03/14 08:23:23;;;;;;;;;;;;;;;;;;5062685;28;20360;-70
2021/03/14 08:25:49;;;;;;;;;;;;;;;;;;5059918;28;19951;-67
2021/03/14 08:28:25;;;;;;;;;;;23.40;64.30;;;;;;5059276;28;19938;-66
2021/03/14 08:31:04;;;;;;;;;;;22.40;58.00;;;;;;5059001;28;19971;-72
2021/03/14 08:33:30;;;;;;;;;;;;;;;;;;5061990;28;20012;-69
2021/03/14 08:35:56;;;;;;;;;;;;;;;;;;5046443;28;20286;-69
2021/03/14 08:38:54;;;;;;;;;;;27.20;59.30;;;;;;5055193;28;19975;-70
2021/03/14 08:41:25;;;;;;;;;;;28.20;51.90;;;;;;5046160;28;20008;-69
2021/03/14 08:44:12;;;;;;;;;;;26.60;50.80;;;;;;5059413;28;19916;-71
2021/03/14 08:46:50;;;;;;;;;;;27.30;46.50;;;;;;5056769;28;19912;-68
2021/03/14 08:49:17;;;;;;;;;;;24.90;47.90;;;;;;5053440;28;19913;-71
2021/03/14 08:51:43;;;;;;;;;;;21.70;58.20;;;;;;5059378;28;20322;-69
2021/03/14 08:54:09;;;;;;;;;;;20.20;49.90;;;;;;5057559;28;19930;-68
2021/03/14 08:56:34;;;;;;;;;;;18.00;44.80;;;;;;5054248;28;19989;-68
2021/03/14 08:59:10;;;;;;;;;;;16.10;44.20;;;;;;5056832;28;19992;-70
2021/03/14 09:01:36;;;;;;;;;;;15.10;45.90;;;;;;5074514;28;20398;-71
2021/03/14 09:04:22;;;;;;;;;;;14.00;48.00;;;;;;5064220;28;19960;-66
2021/03/14 09:06:48;;;;;;;;;;;13.30;49.70;;;;;;5047746;28;19913;-69
2021/03/14 09:09:16;;;;;;;;;;;13.10;50.80;;;;;;5056222;28;19955;-68
2021/03/14 09:11:49;;;;;;;;;;;14.30;49.40;;;;;;5066979;28;19967;-68
2021/03/14 09:14:26;;;;;;;;;;;14.20;50.00;;;;;;5052088;28;20368;-70
2021/03/14 09:16:54;;;;;;;;;;;14.60;49.30;;;;;;5061022;28;19916;-69
2021/03/14 09:19:23;;;;;;;;;;;15.20;48.10;;;;;;5056382;28;19956;-69
2021/03/14 09:21:50;;;;;;;;;;;14.10;48.70;;;;;;5063595;28;19975;-70
2021/03/14 09:24:27;;;;;;;;;;;13.50;54.30;;;;;;5054567;28;19913;-68
2021/03/14 09:26:57;;;;;;;;;;;12.80;55.00;;;;;;5058153;28;19916;-70
2021/03/14 09:29:35;;;;;;;;;;;12.10;56.30;;;;;;5047915;28;20687;-68
2021/03/14 09:32:02;;;;;;;;;;;11.90;56.80;;;;;;5049788;28;19912;-71
2021/03/14 09:34:28;;;;;;;;;;;13.80;54.10;;;;;;5057451;28;19912;-68
2021/03/14 09:36:53;;;;;;;;;;;14.00;52.10;;;;;;5067678;28;19912;-70
2021/03/14 09:39:22;;;;;;;;;;;13.90;51.00;;;;;;5067737;28;20365;-68
2021/03/14 09:41:48;;;;;;;;;;;16.10;49.50;;;;;;5066575;28;19915;-69
2021/03/14 09:44:17;;;;;;;;;;;20.70;43.00;;;;;;5059289;28;19917;-68
2021/03/14 09:47:00;;;;;;;;;;;20.00;40.30;;;;;;5053311;28;20369;-68
2021/03/14 09:49:25;;;;;;;;;;;17.40;42.80;;;;;;5056375;28;19919;-69
2021/03/14 09:51:52;;;;;;;;;;;15.30;45.50;;;;;;5056617;28;20348;-67
2021/03/14 09:54:17;;;;;;;;;;;14.40;47.30;;;;;;5056433;28;20246;-66
2021/03/14 09:56:49;;;;;;;;;;;13.20;49.10;;;;;;5050285;28;19927;-66
2021/03/14 09:59:14;;;;;;;;;;;;;;;;;;5059555;28;19936;-69
2021/03/14 10:01:46;;;;;;;;;;;11.70;51.50;;;;;;5051165;28;20054;-71
2021/03/14 10:04:11;;;;;;;;;;;11.20;66.20;;;;;;5052305;28;19920;-66
2021/03/14 10:06:38;;;;;;;;;;;10.80;69.70;;;;;;5037709;28;20641;-67
2021/03/14 10:09:03;;;;;;;;;;;10.60;72.10;;;;;;5046967;28;19920;-67
2021/03/14 10:11:29;;;;;;;;;;;10.20;76.00;;;;;;5054243;28;19912;-68
2021/03/14 10:13:55;;;;;;;;;;;9.70;59.40;;;;;;5032515;28;19921;-69
2021/03/14 10:16:30;;;;;;;;;;;9.30;57.80;;;;;;5056027;28;20397;-69
2021/03/14 10:18:58;;;;;;;;;;;9.20;59.10;;;;;;5058346;28;20027;-69
2021/03/14 10:21:26;;;;;;;;;;;8.90;63.40;;;;;;5055362;28;20401;-70
2021/03/14 10:24:11;;;;;;;;;;;8.60;65.80;;;;;;5056400;28;19995;-69
2021/03/14 10:26:48;;;;;;;;;;;8.60;66.40;;;;;;5058337;28;19916;-69
2021/03/14 10:29:14;;;;;;;;;;;8.80;65.70;;;;;;5058721;28;20280;-70
2021/03/14 10:31:39;;;;;;;;;;;8.90;65.30;;;;;;5056460;28;19913;-71
2021/03/14 10:34:05;;;;;;;;;;;9.20;65.40;;;;;;5054023;28;20258;-68
2021/03/14 10:36:33;;;;;;;;;;;9.40;64.50;;;;;;5059179;28;19917;-68
2021/03/14 10:38:59;;;;;;;;;;;9.80;64.00;;;;;;5058610;28;19912;-69
2021/03/14 10:41:25;;;;;;;;;;;10.30;61.80;;;;;;5052002;28;19975;-69
2021/03/14 10:43:58;;;;;;;;;;;11.80;57.60;;;;;;5061941;28;20299;-70
2021/03/14 10:46:43;;;;;;;;;;;12.40;56.90;;;;;;5067648;28;19952;-70
2021/03/14 10:49:13;;;;;;;;;;;11.90;56.70;;;;;;5056928;28;19952;-69
2021/03/14 10:51:40;;;;;;;;;;;11.20;57.40;;;;;;5059560;28;19921;-68
2021/03/14 10:54:10;;;;;;;;;;;10.70;58.00;;;;;;5068461;28;19953;-70
2021/03/14 10:56:38;;;;;;;;;;;10.20;58.90;;;;;;5069114;28;19996;-69
2021/03/14 10:59:04;;;;;;;;;;;10.20;59.70;;;;;;5062684;28;19974;-69
2021/03/14 11:01:38;;;;;;;;;;;10.30;59.40;;;;;;5059412;28;19929;-67
2021/03/14 11:04:05;;;;;;;;;;;10.70;59.30;;;;;;5072500;22;20276;-69
2021/03/14 11:06:30;;;;;;;;;;;11.50;59.40;;;;;;5057912;28;19917;-68
2021/03/14 11:08:56;;;;;;;;;;;12.40;58.20;;;;;;5058848;28;20610;-70
2021/03/14 11:11:35;;;;;;;;;;;13.20;56.60;;;;;;5051622;28;19913;-69
2021/03/14 11:14:01;;;;;;;;;;;14.30;50.70;;;;;;5038752;28;19938;-68
2021/03/14 11:16:26;;;;;;;;;;;15.10;48.40;;;;;;5034694;28;20444;-70
2021/03/14 11:18:56;;;;;;;;;;;15.70;47.10;;;;;;5031011;28;19979;-69
2021/03/14 11:21:21;;;;;;;;;;;16.60;44.30;;;;;;5029340;28;19928;-68
2021/03/14 11:23:47;;;;;;;;;;;16.60;43.80;;;;;;5030052;28;19972;-70
2021/03/14 11:26:12;;;;;;;;;;;16.50;44.00;;;;;;5030148;28;20385;-70
2021/03/14 11:28:41;;;;;;;;;;;15.90;43.40;;;;;;5021941;28;19925;-69
2021/03/14 11:31:07;;;;;;;;;;;15.60;43.20;;;;;;5029164;28;19913;-69
2021/03/14 11:33:32;;;;;;;;;;;14.90;43.60;;;;;;5024347;28;19959;-70
2021/03/14 11:35:58;;;;;;;;;;;14.00;44.90;;;;;;5026611;28;20384;-70
2021/03/14 11:38:23;;;;;;;;;;;13.30;46.60;;;;;;5037062;28;20023;-70
2021/03/14 11:40:54;;;;;;;;;;;12.70;48.00;;;;;;5029718;28;20004;-69
2021/03/14 11:43:20;;;;;;;;;;;12.20;48.90;;;;;;5022626;28;19914;-70
2021/03/14 11:45:45;;;;;;;;;;;12.00;48.70;;;;;;5029149;28;19944;-71
2021/03/14 11:48:11;;;;;;;;;;;11.80;49.00;;;;;;5028232;28;19967;-69
2021/03/14 11:50:36;;;;;;;;;;;11.60;49.50;;;;;;5007795;28;19927;-68
2021/03/14 11:53:02;;;;;;;;;;;11.30;48.90;;;;;;5027458;28;19917;-69
2021/03/14 11:55:27;;;;;;;;;;;11.10;49.80;;;;;;5031882;28;19960;-69
2021/03/14 11:57:53;;;;;;;;;;;10.70;50.90;;;;;;5024835;28;19921;-68
2021/03/14 12:00:19;;;;;;;;;;;10.40;51.10;;;;;;5027310;28;20331;-68
2021/03/14 12:02:44;;;;;;;;;;;10.00;55.50;;;;;;5029296;28;19917;-68
2021/03/14 12:05:10;;;;;;;;;;;9.80;56.90;;;;;;5029005;28;20403;-70
2021/03/14 12:07:39;;;;;;;;;;;9.80;57.60;;;;;;5027790;28;19979;-69
2021/03/14 12:10:05;;;;;;;;;;;9.90;57.30;;;;;;5028226;28;19917;-69
2021/03/14 12:12:31;;;;;;;;;;;10.00;57.20;;;;;;5019268;28;19966;-70
2021/03/14 12:14:56;;;;;;;;;;;10.20;57.50;;;;;;5027619;28;19910;-69
2021/03/14 12:17:23;;;;;;;;;;;10.60;57.50;;;;;;5028229;28;19917;-70
2021/03/14 12:19:49;;;;;;;;;;;11.10;56.50;;;;;;5028417;28;19913;-69
2021/03/14 12:22:14;;;;;;;;;;;11.60;55.30;;;;;;5026712;28;20074;-69
2021/03/14 12:24:40;;;;;;;;;;;12.00;54.20;;;;;;5028443;28;19986;-69
2021/03/14 12:27:06;;;;;;;;;;;12.40;54.10;;;;;;5027936;28;19917;-69
2021/03/14 12:29:31;;;;;;;;;;;12.80;53.40;;;;;;5017695;28;19915;-70
2021/03/14 12:31:57;;;;;;;;;;;13.20;53.20;;;;;;5027196;28;20289;-69
2021/03/14 12:34:22;;;;;;;;;;;13.10;51.70;;;;;;5028019;28;19909;-69
2021/03/14 12:36:48;;;;;;;;;;;12.90;52.10;;;;;;5028872;28;19979;-69
2021/03/14 12:39:14;;;;;;;;;;;12.80;52.90;;;;;;5039238;28;19940;-70
2021/03/14 12:41:39;;;;;;;;;;;12.90;53.10;;;;;;5027421;28;19917;-69
2021/03/14 12:44:05;;;;;;;;;;;13.00;53.10;;;;;;5009953;28;19920;-69
2021/03/14 12:46:30;;;;;;;;;;;13.20;53.20;;;;;;5018460;28;20382;-68
2021/03/14 12:48:56;;;;;;;;;;;13.30;53.20;;;;;;5023630;28;19955;-69
2021/03/14 12:51:21;;;;;;;;;;;13.30;52.60;;;;;;5014191;28;19924;-69
2021/03/14 12:53:47;;;;;;;;;;;13.20;51.70;;;;;;5019910;28;20536;-70
2021/03/14 12:56:12;;;;;;;;;;;12.90;51.10;;;;;;5020481;28;19932;-69
2021/03/14 12:58:38;;;;;;;;;;;12.40;51.90;;;;;;5027119;28;20192;-69
2021/03/14 13:01:03;;;;;;;;;;;12.00;52.40;;;;;;5027124;28;20261;-68
2021/03/14 13:03:29;;;;;;;;;;;11.70;53.20;;;;;;5028251;28;20019;-68
2021/03/14 13:05:54;;;;;;;;;;;11.60;54.00;;;;;;5028212;28;20000;-70
2021/03/14 13:08:20;;;;;;;;;;;11.50;54.50;;;;;;5024173;28;19925;-70
2021/03/14 13:10:45;;;;;;;;;;;11.50;54.30;;;;;;5026956;28;19917;-69
2021/03/14 13:13:11;;;;;;;;;;;11.40;54.00;;;;;;5027531;28;19967;-70
2021/03/14 13:15:36;;;;;;;;;;;11.40;54.30;;;;;;5027760;28;19925;-69
2021/03/14 13:18:02;;;;;;;;;;;11.40;54.70;;;;;;5028530;28;19998;-68
2021/03/14 13:20:28;;;;;;;;;;;11.40;54.70;;;;;;5027503;28;19967;-67
2021/03/14 13:22:53;;;;;;;;;;;11.30;54.80;;;;;;5028201;28;20242;-68
2021/03/14 13:25:22;;;;;;;;;;;11.20;54.70;;;;;;5028313;28;19917;-69
2021/03/14 13:27:47;;;;;;;;;;;11.00;54.80;;;;;;5026488;28;20262;-69
2021/03/14 13:30:13;;;;;;;;;;;10.80;55.30;;;;;;5027667;28;19917;-69
2021/03/14 13:32:39;;;;;;;;;;;10.70;56.00;;;;;;5018811;28;19933;-68
2021/03/14 13:35:05;;;;;;;;;;;10.60;56.40;;;;;;5024239;28;19940;-70
2021/03/14 13:37:31;;;;;;;;;;;10.50;56.70;;;;;;5023308;28;19925;-70
2021/03/14 13:39:56;;;;;;;;;;;10.30;57.40;;;;;;5019402;28;19928;-69
2021/03/14 13:42:23;;;;;;;;;;;10.10;57.60;;;;;;5026830;28;20430;-70
2021/03/14 13:44:49;;;;;;;;;;;10.00;57.80;;;;;;5027349;28;20369;-70
2021/03/14 13:47:15;;;;;;;;;;;9.90;59.30;;;;;;5028166;28;19979;-68
2021/03/14 13:49:41;;;;;;;;;;;10.10;59.00;;;;;;5011774;28;19918;-69
2021/03/14 13:52:06;;;;;;;;;;;10.20;58.80;;;;;;5017164;28;20333;-70
2021/03/14 13:54:32;;;;;;;;;;;10.30;58.60;;;;;;5019484;28;19957;-70
2021/03/14 13:56:57;;;;;;;;;;;10.40;59.00;;;;;;5027369;28;19924;-69
2021/03/14 13:59:23;;;;;;;;;;;10.40;60.20;;;;;;5028617;28;19917;-70
2021/03/14 14:01:48;;;;;;;;;;;10.30;59.50;;;;;;5030426;28;20213;-68
2021/03/14 14:04:14;;;;;;;;;;;10.30;60.30;;;;;;5031147;28;19921;-68
2021/03/14 14:06:41;;;;;;;;;;;10.10;61.00;;;;;;5030864;28;19924;-67
2021/03/14 14:09:06;;;;;;;;;;;10.00;63.70;;;;;;5030141;28;19917;-69
2021/03/14 14:11:32;;;;;;;;;;;9.50;65.20;;;;;;5030088;28;19927;-70
2021/03/14 14:13:57;;;;;;;;;;;9.40;69.80;;;;;;5030784;28;19917;-71
2021/03/14 14:16:23;;;;;;;;;;;9.20;75.00;;;;;;5026880;28;20598;-69
2021/03/14 14:18:48;;;;;;;;;;;9.00;77.60;;;;;;5024717;28;19917;-70
2021/03/14 14:21:14;;;;;;;;;;;8.90;80.40;;;;;;5037402;28;20015;-69
2021/03/14 14:23:39;;;;;;;;;;;8.70;82.10;;;;;;5041111;28;20066;-70
2021/03/14 14:26:05;;;;;;;;;;;8.70;84.50;;;;;;5034943;28;19913;-70
2021/03/14 14:28:30;;;;;;;;;;;8.60;86.00;;;;;;5029050;28;19924;-70